Terminal Aerodrome Forecast
Issued by NWS

Home | Current Version | Previous Version | Text Only | Print | Product List | Glossary On
Versions: 1 2 3 4 5 6 7 8 9 10 11 12 13 14 15 16
000
FTUS43 KEAX 251124
TAFMKC
TAF
KMKC 251124Z 2512/2612 26006KT P6SM FEW080 SCT150
     FM251400 35007KT P6SM SCT080 BKN120
     FM260200 VRB05KT P6SM BKN080=

USA.gov is the U.S. government's official web portal to all federal, state and local government web resources and services.